Alderton, Washington
Current Conditions -  °F | °C
As of 12:58 AM on Monday 24 Nov 2014 (Local Time) from KTCM Reporting Station
Clear Clear  
Wind Chill: 39°   Ceiling: Unl
Heat Index: 39°   Visibility: 10mi
Dew Point: 39°   Wind: 0mph
Humidity: 99%   Direction: NA
Pressure: 30.37"   Gusts: NA
Location:  47.1905°N, 122.328°W
Report Text: KTCM 240858Z AUTO 00000KT 10SM CLR 04/04 A3037 RMK AO2 SLP290 T00400038 52018 $
Loading
Personal Weather Stations






























Interactive Weather Map New forecast layout! Learn more

10-Day Weather Forecast

Advertisements
Track Severe Weather on mobile